sensor_id;sensor_type;location;lat;lon;timestamp;temperature;humidity
19359;DHT22;9815;52.334;20.890;2022-09-09T00:01:25;12.00;99.90
19359;DHT22;9815;52.334;20.890;2022-09-09T00:04:00;12.00;99.90
19359;DHT22;9815;52.334;20.890;2022-09-09T00:06:32;12.00;99.90
19359;DHT22;9815;52.334;20.890;2022-09-09T00:09:06;11.90;99.90
19359;DHT22;9815;52.334;20.890;2022-09-09T00:11:39;12.00;99.90
19359;DHT22;9815;52.334;20.890;2022-09-09T00:14:16;12.00;99.90
19359;DHT22;9815;52.334;20.890;2022-09-09T00:16:52;11.90;99.90
19359;DHT22;9815;52.334;20.890;2022-09-09T00:19:26;11.80;99.90
19359;DHT22;9815;52.334;20.890;2022-09-09T00:22:06;11.90;99.90
19359;DHT22;9815;52.334;20.890;2022-09-09T00:24:43;11.90;99.90
19359;DHT22;9815;52.334;20.890;2022-09-09T00:27:19;11.80;99.90
19359;DHT22;9815;52.334;20.890;2022-09-09T00:29:54;11.80;99.90
19359;DHT22;9815;52.334;20.890;2022-09-09T00:32:30;11.80;99.90
19359;DHT22;9815;52.334;20.890;2022-09-09T00:35:03;11.80;99.90
19359;DHT22;9815;52.334;20.890;2022-09-09T00:37:38;11.80;99.90
19359;DHT22;9815;52.334;20.890;2022-09-09T00:40:20;11.80;99.90
19359;DHT22;9815;52.334;20.890;2022-09-09T00:42:54;11.70;99.90
19359;DHT22;9815;52.334;20.890;2022-09-09T00:45:52;11.70;99.90
19359;DHT22;9815;52.334;20.890;2022-09-09T00:48:31;11.80;99.90
19359;DHT22;9815;52.334;20.890;2022-09-09T00:51:09;11.80;99.90
19359;DHT22;9815;52.334;20.890;2022-09-09T00:54:00;11.80;99.90
19359;DHT22;9815;52.334;20.890;2022-09-09T00:56:35;11.80;99.90
19359;DHT22;9815;52.334;20.890;2022-09-09T00:59:20;11.80;99.90
19359;DHT22;9815;52.334;20.890;2022-09-09T01:01:55;11.80;99.90
19359;DHT22;9815;52.334;20.890;2022-09-09T01:04:29;11.80;99.90
19359;DHT22;9815;52.334;20.890;2022-09-09T01:07:07;11.80;99.90
19359;DHT22;9815;52.334;20.890;2022-09-09T01:09:50;11.70;99.90
19359;DHT22;9815;52.334;20.890;2022-09-09T01:12:26;11.70;99.90
19359;DHT22;9815;52.334;20.890;2022-09-09T01:15:03;11.70;99.90
19359;DHT22;9815;52.334;20.890;2022-09-09T01:17:37;11.70;99.90
19359;DHT22;9815;52.334;20.890;2022-09-09T01:20:14;11.70;99.90
19359;DHT22;9815;52.334;20.890;2022-09-09T01:26:17;11.70;99.90
19359;DHT22;9815;52.334;20.890;2022-09-09T01:28:48;11.80;99.90
19359;DHT22;9815;52.334;20.890;2022-09-09T01:31:19;11.80;99.90
19359;DHT22;9815;52.334;20.890;2022-09-09T01:33:48;11.70;99.90
19359;DHT22;9815;52.334;20.890;2022-09-09T01:36:24;11.70;99.90
19359;DHT22;9815;52.334;20.890;2022-09-09T01:38:54;11.80;99.90
19359;DHT22;9815;52.334;20.890;2022-09-09T01:41:24;11.80;99.90
19359;DHT22;9815;52.334;20.890;2022-09-09T01:44:09;11.80;99.90
19359;DHT22;9815;52.334;20.890;2022-09-09T01:46:39;11.80;99.90
19359;DHT22;9815;52.334;20.890;2022-09-09T01:49:15;11.80;99.90
19359;DHT22;9815;52.334;20.890;2022-09-09T01:51:46;11.80;99.90
19359;DHT22;9815;52.334;20.890;2022-09-09T01:54:16;11.80;99.90
19359;DHT22;9815;52.334;20.890;2022-09-09T01:57:06;11.80;99.90
19359;DHT22;9815;52.334;20.890;2022-09-09T01:59:54;11.80;99.90
19359;DHT22;9815;52.334;20.890;2022-09-09T02:02:32;11.80;99.90
19359;DHT22;9815;52.334;20.890;2022-09-09T02:05:25;11.80;99.90
19359;DHT22;9815;52.334;20.890;2022-09-09T02:08:03;11.80;99.90
19359;DHT22;9815;52.334;20.890;2022-09-09T02:11:05;11.80;99.90
19359;DHT22;9815;52.334;20.890;2022-09-09T02:13:43;11.80;99.90
19359;DHT22;9815;52.334;20.890;2022-09-09T02:16:17;11.80;99.90
19359;DHT22;9815;52.334;20.890;2022-09-09T02:18:51;11.90;99.90
19359;DHT22;9815;52.334;20.890;2022-09-09T02:21:31;11.90;99.90
19359;DHT22;9815;52.334;20.890;2022-09-09T02:24:04;11.90;99.90
19359;DHT22;9815;52.334;20.890;2022-09-09T02:26:39;11.80;99.90
19359;DHT22;9815;52.334;20.890;2022-09-09T02:29:14;11.80;99.90
19359;DHT22;9815;52.334;20.890;2022-09-09T02:31:47;11.80;99.90
19359;DHT22;9815;52.334;20.890;2022-09-09T02:34:21;11.80;99.90
19359;DHT22;9815;52.334;20.890;2022-09-09T02:36:53;11.90;99.90
19359;DHT22;9815;52.334;20.890;2022-09-09T02:39:22;11.90;99.90
19359;DHT22;9815;52.334;20.890;2022-09-09T02:41:52;11.90;99.90
19359;DHT22;9815;52.334;20.890;2022-09-09T02:44:30;11.80;99.90
19359;DHT22;9815;52.334;20.890;2022-09-09T02:47:13;11.80;99.90
19359;DHT22;9815;52.334;20.890;2022-09-09T02:49:55;11.80;99.90
19359;DHT22;9815;52.334;20.890;2022-09-09T02:52:32;11.90;99.90
19359;DHT22;9815;52.334;20.890;2022-09-09T02:55:08;11.80;99.90
19359;DHT22;9815;52.334;20.890;2022-09-09T02:57:40;11.80;99.90
19359;DHT22;9815;52.334;20.890;2022-09-09T03:00:12;11.80;99.90
19359;DHT22;9815;52.334;20.890;2022-09-09T03:02:41;11.80;99.90
19359;DHT22;9815;52.334;20.890;2022-09-09T03:05:10;11.80;99.90
19359;DHT22;9815;52.334;20.890;2022-09-09T03:07:41;11.80;99.90
19359;DHT22;9815;52.334;20.890;2022-09-09T03:10:09;11.80;99.90
19359;DHT22;9815;52.334;20.890;2022-09-09T03:12:37;11.80;99.90
19359;DHT22;9815;52.334;20.890;2022-09-09T03:15:07;11.90;99.90
19359;DHT22;9815;52.334;20.890;2022-09-09T03:17:39;11.90;99.90
19359;DHT22;9815;52.334;20.890;2022-09-09T03:20:08;11.80;99.90
19359;DHT22;9815;52.334;20.890;2022-09-09T03:22:37;11.80;99.90
19359;DHT22;9815;52.334;20.890;2022-09-09T03:25:06;11.80;99.90
19359;DHT22;9815;52.334;20.890;2022-09-09T03:27:36;11.80;99.90
19359;DHT22;9815;52.334;20.890;2022-09-09T03:30:05;11.90;99.90
19359;DHT22;9815;52.334;20.890;2022-09-09T03:32:34;11.90;99.90
19359;DHT22;9815;52.334;20.890;2022-09-09T03:35:04;11.90;99.90
19359;DHT22;9815;52.334;20.890;2022-09-09T03:37:32;11.90;99.90
19359;DHT22;9815;52.334;20.890;2022-09-09T03:40:01;11.80;99.90
19359;DHT22;9815;52.334;20.890;2022-09-09T03:42:30;11.90;99.90
19359;DHT22;9815;52.334;20.890;2022-09-09T03:44:59;11.90;99.90
19359;DHT22;9815;52.334;20.890;2022-09-09T03:47:29;11.90;99.90
19359;DHT22;9815;52.334;20.890;2022-09-09T03:50:06;11.90;99.90
19359;DHT22;9815;52.334;20.890;2022-09-09T03:52:42;11.90;99.90
19359;DHT22;9815;52.334;20.890;2022-09-09T03:55:17;11.90;99.90
19359;DHT22;9815;52.334;20.890;2022-09-09T03:57:46;11.90;99.90
19359;DHT22;9815;52.334;20.890;2022-09-09T04:00:15;11.90;99.90
19359;DHT22;9815;52.334;20.890;2022-09-09T04:02:45;12.00;99.90
19359;DHT22;9815;52.334;20.890;2022-09-09T04:05:17;12.00;99.90
19359;DHT22;9815;52.334;20.890;2022-09-09T04:07:47;12.00;99.90
19359;DHT22;9815;52.334;20.890;2022-09-09T04:10:16;12.00;99.90
19359;DHT22;9815;52.334;20.890;2022-09-09T04:12:44;12.10;99.90
19359;DHT22;9815;52.334;20.890;2022-09-09T04:15:16;12.10;99.90
19359;DHT22;9815;52.334;20.890;2022-09-09T04:17:46;12.10;99.90
19359;DHT22;9815;52.334;20.890;2022-09-09T04:20:14;12.10;99.90
19359;DHT22;9815;52.334;20.890;2022-09-09T04:22:46;12.10;99.90
19359;DHT22;9815;52.334;20.890;2022-09-09T04:25:14;12.10;99.90
19359;DHT22;9815;52.334;20.890;2022-09-09T04:27:43;12.10;99.90
19359;DHT22;9815;52.334;20.890;2022-09-09T04:30:12;12.10;99.90
19359;DHT22;9815;52.334;20.890;2022-09-09T04:32:41;12.10;99.90
19359;DHT22;9815;52.334;20.890;2022-09-09T04:35:09;12.20;99.90
19359;DHT22;9815;52.334;20.890;2022-09-09T04:37:38;12.20;99.90
19359;DHT22;9815;52.334;20.890;2022-09-09T04:40:09;12.20;99.90
19359;DHT22;9815;52.334;20.890;2022-09-09T04:42:38;12.20;99.90
19359;DHT22;9815;52.334;20.890;2022-09-09T04:45:14;12.20;99.90
19359;DHT22;9815;52.334;20.890;2022-09-09T04:47:42;12.10;99.90
19359;DHT22;9815;52.334;20.890;2022-09-09T04:50:10;12.10;99.90
19359;DHT22;9815;52.334;20.890;2022-09-09T04:52:39;12.10;99.90
19359;DHT22;9815;52.334;20.890;2022-09-09T04:55:09;12.20;99.90
19359;DHT22;9815;52.334;20.890;2022-09-09T04:57:43;12.20;99.90
19359;DHT22;9815;52.334;20.890;2022-09-09T05:00:13;12.20;99.90
19359;DHT22;9815;52.334;20.890;2022-09-09T05:02:41;12.20;99.90
19359;DHT22;9815;52.334;20.890;2022-09-09T05:05:10;12.20;99.90
19359;DHT22;9815;52.334;20.890;2022-09-09T05:07:40;12.20;99.90
19359;DHT22;9815;52.334;20.890;2022-09-09T05:10:10;12.20;99.90
19359;DHT22;9815;52.334;20.890;2022-09-09T05:12:38;12.20;99.90
19359;DHT22;9815;52.334;20.890;2022-09-09T05:15:07;12.20;99.90
19359;DHT22;9815;52.334;20.890;2022-09-09T05:17:36;12.20;99.90
19359;DHT22;9815;52.334;20.890;2022-09-09T05:20:06;12.20;99.90
19359;DHT22;9815;52.334;20.890;2022-09-09T05:22:37;12.20;99.90
19359;DHT22;9815;52.334;20.890;2022-09-09T05:25:06;12.20;99.90
19359;DHT22;9815;52.334;20.890;2022-09-09T05:27:36;12.20;99.90
19359;DHT22;9815;52.334;20.890;2022-09-09T05:30:07;12.30;99.90
19359;DHT22;9815;52.334;20.890;2022-09-09T05:32:35;12.20;99.90
19359;DHT22;9815;52.334;20.890;2022-09-09T05:35:04;12.30;99.90
19359;DHT22;9815;52.334;20.890;2022-09-09T05:37:32;12.30;99.90
19359;DHT22;9815;52.334;20.890;2022-09-09T05:40:02;12.30;99.90
19359;DHT22;9815;52.334;20.890;2022-09-09T05:42:31;12.30;99.90
19359;DHT22;9815;52.334;20.890;2022-09-09T05:45:01;12.30;99.90
19359;DHT22;9815;52.334;20.890;2022-09-09T05:47:30;12.30;99.90
19359;DHT22;9815;52.334;20.890;2022-09-09T05:49:58;12.30;99.90
19359;DHT22;9815;52.334;20.890;2022-09-09T05:52:27;12.30;99.90
19359;DHT22;9815;52.334;20.890;2022-09-09T05:54:57;12.30;99.90
19359;DHT22;9815;52.334;20.890;2022-09-09T05:57:26;12.30;99.90
19359;DHT22;9815;52.334;20.890;2022-09-09T05:59:55;12.30;99.90
19359;DHT22;9815;52.334;20.890;2022-09-09T06:02:24;12.30;99.90
19359;DHT22;9815;52.334;20.890;2022-09-09T06:04:52;12.30;99.90
19359;DHT22;9815;52.334;20.890;2022-09-09T06:07:27;12.30;99.90
19359;DHT22;9815;52.334;20.890;2022-09-09T06:09:55;12.40;99.90
19359;DHT22;9815;52.334;20.890;2022-09-09T06:12:26;12.40;99.90
19359;DHT22;9815;52.334;20.890;2022-09-09T06:14:54;12.40;99.90
19359;DHT22;9815;52.334;20.890;2022-09-09T06:17:24;12.40;99.90
19359;DHT22;9815;52.334;20.890;2022-09-09T06:19:53;12.40;99.90
19359;DHT22;9815;52.334;20.890;2022-09-09T06:22:21;12.50;99.90
19359;DHT22;9815;52.334;20.890;2022-09-09T06:24:50;12.50;99.90
19359;DHT22;9815;52.334;20.890;2022-09-09T06:27:20;12.50;99.90
19359;DHT22;9815;52.334;20.890;2022-09-09T06:29:48;12.50;99.90
19359;DHT22;9815;52.334;20.890;2022-09-09T06:32:16;12.60;99.90
19359;DHT22;9815;52.334;20.890;2022-09-09T06:34:46;12.60;99.90
19359;DHT22;9815;52.334;20.890;2022-09-09T06:37:16;12.60;99.90
19359;DHT22;9815;52.334;20.890;2022-09-09T06:39:48;12.60;99.90
19359;DHT22;9815;52.334;20.890;2022-09-09T06:42:16;12.70;99.90
19359;DHT22;9815;52.334;20.890;2022-09-09T06:44:58;12.70;99.90
19359;DHT22;9815;52.334;20.890;2022-09-09T06:47:34;12.70;99.90
19359;DHT22;9815;52.334;20.890;2022-09-09T06:50:05;12.80;99.90
19359;DHT22;9815;52.334;20.890;2022-09-09T06:52:35;12.80;99.90
19359;DHT22;9815;52.334;20.890;2022-09-09T06:55:05;12.80;99.90
19359;DHT22;9815;52.334;20.890;2022-09-09T06:57:35;12.80;99.90
19359;DHT22;9815;52.334;20.890;2022-09-09T07:00:17;12.80;99.90
19359;DHT22;9815;52.334;20.890;2022-09-09T07:02:45;12.90;99.90
19359;DHT22;9815;52.334;20.890;2022-09-09T07:05:16;12.90;99.90
19359;DHT22;9815;52.334;20.890;2022-09-09T07:07:45;12.90;99.90
19359;DHT22;9815;52.334;20.890;2022-09-09T07:10:17;12.90;99.90
19359;DHT22;9815;52.334;20.890;2022-09-09T07:12:50;13.00;99.90
19359;DHT22;9815;52.334;20.890;2022-09-09T07:15:21;13.00;99.90
19359;DHT22;9815;52.334;20.890;2022-09-09T07:17:50;12.90;99.90
19359;DHT22;9815;52.334;20.890;2022-09-09T07:20:21;13.00;99.90
19359;DHT22;9815;52.334;20.890;2022-09-09T07:22:50;13.00;99.90
19359;DHT22;9815;52.334;20.890;2022-09-09T07:25:22;13.00;99.90
19359;DHT22;9815;52.334;20.890;2022-09-09T07:27:50;13.00;99.90
19359;DHT22;9815;52.334;20.890;2022-09-09T07:30:19;13.00;99.90
19359;DHT22;9815;52.334;20.890;2022-09-09T07:32:54;13.00;99.90
19359;DHT22;9815;52.334;20.890;2022-09-09T07:35:26;13.00;99.90
19359;DHT22;9815;52.334;20.890;2022-09-09T07:37:55;13.00;99.90
19359;DHT22;9815;52.334;20.890;2022-09-09T07:40:23;13.00;99.90
19359;DHT22;9815;52.334;20.890;2022-09-09T07:42:52;13.00;99.90
19359;DHT22;9815;52.334;20.890;2022-09-09T07:45:20;13.10;99.90
19359;DHT22;9815;52.334;20.890;2022-09-09T07:47:49;13.10;99.90
19359;DHT22;9815;52.334;20.890;2022-09-09T07:50:18;13.20;99.90
19359;DHT22;9815;52.334;20.890;2022-09-09T07:52:48;13.20;99.90
19359;DHT22;9815;52.334;20.890;2022-09-09T07:55:16;13.20;99.90
19359;DHT22;9815;52.334;20.890;2022-09-09T07:57:44;13.30;99.90
19359;DHT22;9815;52.334;20.890;2022-09-09T08:00:15;13.30;99.90
19359;DHT22;9815;52.334;20.890;2022-09-09T08:02:48;13.30;99.90
19359;DHT22;9815;52.334;20.890;2022-09-09T08:05:17;13.30;99.90
19359;DHT22;9815;52.334;20.890;2022-09-09T08:07:45;13.40;99.90
19359;DHT22;9815;52.334;20.890;2022-09-09T08:10:16;13.50;99.90
19359;DHT22;9815;52.334;20.890;2022-09-09T08:12:47;13.50;99.90
19359;DHT22;9815;52.334;20.890;2022-09-09T08:15:36;13.50;99.90
19359;DHT22;9815;52.334;20.890;2022-09-09T08:18:04;13.50;99.90
19359;DHT22;9815;52.334;20.890;2022-09-09T08:20:35;13.40;99.90
19359;DHT22;9815;52.334;20.890;2022-09-09T08:23:04;13.50;99.90
19359;DHT22;9815;52.334;20.890;2022-09-09T08:25:35;13.40;99.90
19359;DHT22;9815;52.334;20.890;2022-09-09T08:28:03;13.50;99.90
19359;DHT22;9815;52.334;20.890;2022-09-09T08:30:32;13.50;99.90
19359;DHT22;9815;52.334;20.890;2022-09-09T08:33:01;13.50;99.90
19359;DHT22;9815;52.334;20.890;2022-09-09T08:35:29;13.50;99.90
19359;DHT22;9815;52.334;20.890;2022-09-09T08:38:00;13.50;99.90
19359;DHT22;9815;52.334;20.890;2022-09-09T08:40:37;13.50;99.90
19359;DHT22;9815;52.334;20.890;2022-09-09T08:43:10;13.50;99.90
19359;DHT22;9815;52.334;20.890;2022-09-09T08:45:49;13.50;99.90
19359;DHT22;9815;52.334;20.890;2022-09-09T08:48:33;13.50;99.90
19359;DHT22;9815;52.334;20.890;2022-09-09T08:51:09;13.60;99.90
19359;DHT22;9815;52.334;20.890;2022-09-09T08:53:43;13.60;99.90
19359;DHT22;9815;52.334;20.890;2022-09-09T08:56:18;13.60;99.90
19359;DHT22;9815;52.334;20.890;2022-09-09T08:58:50;13.70;99.90
19359;DHT22;9815;52.334;20.890;2022-09-09T09:01:51;13.70;99.90
19359;DHT22;9815;52.334;20.890;2022-09-09T09:04:41;13.80;99.90
19359;DHT22;9815;52.334;20.890;2022-09-09T09:07:21;13.80;99.90
19359;DHT22;9815;52.334;20.890;2022-09-09T09:10:04;13.80;99.90
19359;DHT22;9815;52.334;20.890;2022-09-09T09:12:58;13.80;99.90
19359;DHT22;9815;52.334;20.890;2022-09-09T09:15:30;13.70;99.90
19359;DHT22;9815;52.334;20.890;2022-09-09T09:17:59;13.80;99.90
19359;DHT22;9815;52.334;20.890;2022-09-09T09:20:32;13.80;99.90
19359;DHT22;9815;52.334;20.890;2022-09-09T09:23:04;13.80;99.90
19359;DHT22;9815;52.334;20.890;2022-09-09T09:25:35;13.90;99.90
19359;DHT22;9815;52.334;20.890;2022-09-09T09:28:13;13.90;99.90
19359;DHT22;9815;52.334;20.890;2022-09-09T09:30:50;13.90;99.90
19359;DHT22;9815;52.334;20.890;2022-09-09T09:33:26;13.90;99.90
19359;DHT22;9815;52.334;20.890;2022-09-09T09:35:56;13.90;99.90
19359;DHT22;9815;52.334;20.890;2022-09-09T09:38:28;13.80;99.90
19359;DHT22;9815;52.334;20.890;2022-09-09T09:41:17;13.90;99.90
19359;DHT22;9815;52.334;20.890;2022-09-09T09:43:53;13.90;99.90
19359;DHT22;9815;52.334;20.890;2022-09-09T09:46:25;13.90;99.90
19359;DHT22;9815;52.334;20.890;2022-09-09T09:49:04;13.90;99.90
19359;DHT22;9815;52.334;20.890;2022-09-09T09:51:34;13.90;99.90
19359;DHT22;9815;52.334;20.890;2022-09-09T09:54:09;13.90;99.90
19359;DHT22;9815;52.334;20.890;2022-09-09T09:56:46;14.00;99.90
19359;DHT22;9815;52.334;20.890;2022-09-09T09:59:22;13.90;99.90
19359;DHT22;9815;52.334;20.890;2022-09-09T10:02:18;13.90;99.90
19359;DHT22;9815;52.334;20.890;2022-09-09T10:05:01;13.90;99.90
19359;DHT22;9815;52.334;20.890;2022-09-09T10:07:30;13.90;99.90
19359;DHT22;9815;52.334;20.890;2022-09-09T10:10:00;13.90;99.90
19359;DHT22;9815;52.334;20.890;2022-09-09T10:12:40;14.00;99.90
19359;DHT22;9815;52.334;20.890;2022-09-09T10:15:30;14.00;99.90
19359;DHT22;9815;52.334;20.890;2022-09-09T10:18:08;14.10;99.90
19359;DHT22;9815;52.334;20.890;2022-09-09T10:20:45;14.20;99.90
19359;DHT22;9815;52.334;20.890;2022-09-09T10:23:41;14.20;99.90
19359;DHT22;9815;52.334;20.890;2022-09-09T10:26:25;14.20;99.90
19359;DHT22;9815;52.334;20.890;2022-09-09T10:29:10;14.20;99.90
19359;DHT22;9815;52.334;20.890;2022-09-09T10:31:51;14.20;99.90
19359;DHT22;9815;52.334;20.890;2022-09-09T10:34:43;14.20;99.90
19359;DHT22;9815;52.334;20.890;2022-09-09T10:37:18;14.20;99.90
19359;DHT22;9815;52.334;20.890;2022-09-09T10:39:55;14.20;99.90
19359;DHT22;9815;52.334;20.890;2022-09-09T10:42:30;14.30;99.90
19359;DHT22;9815;52.334;20.890;2022-09-09T10:45:13;14.20;99.90
19359;DHT22;9815;52.334;20.890;2022-09-09T10:47:58;14.20;99.90
19359;DHT22;9815;52.334;20.890;2022-09-09T10:50:50;14.20;99.90
19359;DHT22;9815;52.334;20.890;2022-09-09T10:53:46;14.20;99.90
19359;DHT22;9815;52.334;20.890;2022-09-09T10:56:20;14.30;99.90
19359;DHT22;9815;52.334;20.890;2022-09-09T10:58:53;14.30;99.90
19359;DHT22;9815;52.334;20.890;2022-09-09T11:01:25;14.30;99.90
19359;DHT22;9815;52.334;20.890;2022-09-09T11:04:02;14.40;99.90
19359;DHT22;9815;52.334;20.890;2022-09-09T11:06:37;14.30;99.90
19359;DHT22;9815;52.334;20.890;2022-09-09T11:09:10;14.30;99.90
19359;DHT22;9815;52.334;20.890;2022-09-09T11:11:45;14.30;99.90
19359;DHT22;9815;52.334;20.890;2022-09-09T11:14:21;14.40;99.90
19359;DHT22;9815;52.334;20.890;2022-09-09T11:16:53;14.30;99.90
19359;DHT22;9815;52.334;20.890;2022-09-09T11:19:30;14.30;99.90
19359;DHT22;9815;52.334;20.890;2022-09-09T11:22:03;14.40;99.90
19359;DHT22;9815;52.334;20.890;2022-09-09T11:24:36;14.40;99.90
19359;DHT22;9815;52.334;20.890;2022-09-09T11:27:10;14.40;99.90
19359;DHT22;9815;52.334;20.890;2022-09-09T11:36:28;14.50;99.90
19359;DHT22;9815;52.334;20.890;2022-09-09T11:39:07;14.60;99.90
19359;DHT22;9815;52.334;20.890;2022-09-09T11:41:41;14.60;99.90
19359;DHT22;9815;52.334;20.890;2022-09-09T11:44:11;14.70;99.90
19359;DHT22;9815;52.334;20.890;2022-09-09T11:46:41;14.70;99.90
19359;DHT22;9815;52.334;20.890;2022-09-09T11:49:26;14.70;99.90
19359;DHT22;9815;52.334;20.890;2022-09-09T11:51:56;14.70;99.90
19359;DHT22;9815;52.334;20.890;2022-09-09T11:54:29;14.80;99.90
19359;DHT22;9815;52.334;20.890;2022-09-09T11:56:58;14.80;99.90
19359;DHT22;9815;52.334;20.890;2022-09-09T11:59:28;14.70;99.90
19359;DHT22;9815;52.334;20.890;2022-09-09T12:01:57;14.70;99.90
19359;DHT22;9815;52.334;20.890;2022-09-09T12:04:33;14.70;99.90
19359;DHT22;9815;52.334;20.890;2022-09-09T12:07:25;14.70;99.90
19359;DHT22;9815;52.334;20.890;2022-09-09T12:09:59;14.70;99.90
19359;DHT22;9815;52.334;20.890;2022-09-09T12:12:33;14.60;99.90
19359;DHT22;9815;52.334;20.890;2022-09-09T12:15:25;14.60;99.90
19359;DHT22;9815;52.334;20.890;2022-09-09T12:17:57;14.50;99.90
19359;DHT22;9815;52.334;20.890;2022-09-09T12:20:34;14.50;99.90
19359;DHT22;9815;52.334;20.890;2022-09-09T12:23:21;14.50;99.90
19359;DHT22;9815;52.334;20.890;2022-09-09T12:28:48;14.50;99.90
19359;DHT22;9815;52.334;20.890;2022-09-09T12:31:24;14.50;99.90
19359;DHT22;9815;52.334;20.890;2022-09-09T12:33:55;14.70;99.90
19359;DHT22;9815;52.334;20.890;2022-09-09T12:36:27;14.70;99.90
19359;DHT22;9815;52.334;20.890;2022-09-09T12:39:10;14.80;99.90
19359;DHT22;9815;52.334;20.890;2022-09-09T12:41:51;14.80;99.90
19359;DHT22;9815;52.334;20.890;2022-09-09T12:44:24;14.80;99.90
19359;DHT22;9815;52.334;20.890;2022-09-09T12:46:55;14.80;99.90
19359;DHT22;9815;52.334;20.890;2022-09-09T12:49:31;14.70;99.90
19359;DHT22;9815;52.334;20.890;2022-09-09T12:52:03;14.80;99.90
19359;DHT22;9815;52.334;20.890;2022-09-09T12:54:35;14.70;99.90
19359;DHT22;9815;52.334;20.890;2022-09-09T12:57:04;14.70;99.90
19359;DHT22;9815;52.334;20.890;2022-09-09T12:59:37;14.60;99.90
19359;DHT22;9815;52.334;20.890;2022-09-09T13:02:18;14.60;99.90
19359;DHT22;9815;52.334;20.890;2022-09-09T13:04:47;14.60;99.90
19359;DHT22;9815;52.334;20.890;2022-09-09T13:07:18;14.60;99.90
19359;DHT22;9815;52.334;20.890;2022-09-09T13:09:48;14.60;99.90
19359;DHT22;9815;52.334;20.890;2022-09-09T13:12:19;14.70;99.90
19359;DHT22;9815;52.334;20.890;2022-09-09T13:14:49;14.80;99.90
19359;DHT22;9815;52.334;20.890;2022-09-09T13:17:21;14.80;99.90
19359;DHT22;9815;52.334;20.890;2022-09-09T13:19:50;14.80;99.90
19359;DHT22;9815;52.334;20.890;2022-09-09T13:22:31;14.70;99.90
19359;DHT22;9815;52.334;20.890;2022-09-09T13:25:06;14.70;99.90
19359;DHT22;9815;52.334;20.890;2022-09-09T13:27:53;14.70;99.90
19359;DHT22;9815;52.334;20.890;2022-09-09T13:30:24;14.70;99.90
19359;DHT22;9815;52.334;20.890;2022-09-09T13:33:20;14.70;99.90
19359;DHT22;9815;52.334;20.890;2022-09-09T13:35:52;14.60;99.90
19359;DHT22;9815;52.334;20.890;2022-09-09T13:38:22;14.60;99.90
19359;DHT22;9815;52.334;20.890;2022-09-09T13:40:59;14.70;99.90
19359;DHT22;9815;52.334;20.890;2022-09-09T13:43:33;14.70;99.90
19359;DHT22;9815;52.334;20.890;2022-09-09T13:46:04;14.70;99.90
19359;DHT22;9815;52.334;20.890;2022-09-09T13:48:34;14.70;99.90
19359;DHT22;9815;52.334;20.890;2022-09-09T13:51:03;14.80;99.90
19359;DHT22;9815;52.334;20.890;2022-09-09T13:53:32;14.80;99.90
19359;DHT22;9815;52.334;20.890;2022-09-09T13:56:02;14.80;99.90
19359;DHT22;9815;52.334;20.890;2022-09-09T13:58:30;14.80;99.90
19359;DHT22;9815;52.334;20.890;2022-09-09T14:00:58;14.80;99.90
19359;DHT22;9815;52.334;20.890;2022-09-09T14:03:27;14.70;99.90
19359;DHT22;9815;52.334;20.890;2022-09-09T14:06:19;14.60;99.90
19359;DHT22;9815;52.334;20.890;2022-09-09T14:08:52;14.60;99.90
19359;DHT22;9815;52.334;20.890;2022-09-09T14:11:22;14.60;99.90
19359;DHT22;9815;52.334;20.890;2022-09-09T14:13:51;14.60;99.90
19359;DHT22;9815;52.334;20.890;2022-09-09T14:16:19;14.50;99.90
19359;DHT22;9815;52.334;20.890;2022-09-09T14:18:48;14.50;99.90
19359;DHT22;9815;52.334;20.890;2022-09-09T14:21:17;14.60;99.90
19359;DHT22;9815;52.334;20.890;2022-09-09T14:23:45;14.60;99.90
19359;DHT22;9815;52.334;20.890;2022-09-09T14:26:13;14.60;99.90
19359;DHT22;9815;52.334;20.890;2022-09-09T14:28:43;14.60;99.90
19359;DHT22;9815;52.334;20.890;2022-09-09T14:31:21;14.60;99.90
19359;DHT22;9815;52.334;20.890;2022-09-09T14:33:50;14.70;99.90
19359;DHT22;9815;52.334;20.890;2022-09-09T14:36:19;14.80;99.90
19359;DHT22;9815;52.334;20.890;2022-09-09T14:38:47;14.90;99.90
19359;DHT22;9815;52.334;20.890;2022-09-09T14:41:17;14.90;99.90
19359;DHT22;9815;52.334;20.890;2022-09-09T14:43:48;14.90;99.90
19359;DHT22;9815;52.334;20.890;2022-09-09T14:46:18;14.90;99.90
19359;DHT22;9815;52.334;20.890;2022-09-09T14:48:46;14.90;99.90
19359;DHT22;9815;52.334;20.890;2022-09-09T14:51:18;14.90;99.90
19359;DHT22;9815;52.334;20.890;2022-09-09T14:53:51;14.90;99.90
19359;DHT22;9815;52.334;20.890;2022-09-09T14:56:23;14.90;99.90
19359;DHT22;9815;52.334;20.890;2022-09-09T14:58:54;14.80;99.90
19359;DHT22;9815;52.334;20.890;2022-09-09T15:01:24;14.80;99.90
19359;DHT22;9815;52.334;20.890;2022-09-09T15:03:55;14.80;99.90
19359;DHT22;9815;52.334;20.890;2022-09-09T15:06:26;14.80;99.90
19359;DHT22;9815;52.334;20.890;2022-09-09T15:08:56;14.80;99.90
19359;DHT22;9815;52.334;20.890;2022-09-09T15:11:27;14.80;99.90
19359;DHT22;9815;52.334;20.890;2022-09-09T15:13:58;14.70;99.90
19359;DHT22;9815;52.334;20.890;2022-09-09T15:16:28;14.70;99.90
19359;DHT22;9815;52.334;20.890;2022-09-09T15:18:58;14.60;99.90
19359;DHT22;9815;52.334;20.890;2022-09-09T15:21:28;14.60;99.90
19359;DHT22;9815;52.334;20.890;2022-09-09T15:23:57;14.60;99.90
19359;DHT22;9815;52.334;20.890;2022-09-09T15:26:26;14.60;99.90
19359;DHT22;9815;52.334;20.890;2022-09-09T15:28:55;14.60;99.90
19359;DHT22;9815;52.334;20.890;2022-09-09T15:31:29;14.60;99.90
19359;DHT22;9815;52.334;20.890;2022-09-09T15:34:00;14.60;99.90
19359;DHT22;9815;52.334;20.890;2022-09-09T15:36:30;14.60;99.90
19359;DHT22;9815;52.334;20.890;2022-09-09T15:38:59;14.60;99.90
19359;DHT22;9815;52.334;20.890;2022-09-09T15:41:28;14.60;99.90
19359;DHT22;9815;52.334;20.890;2022-09-09T15:43:58;14.60;99.90
19359;DHT22;9815;52.334;20.890;2022-09-09T15:46:32;14.70;99.90
19359;DHT22;9815;52.334;20.890;2022-09-09T15:49:05;14.60;99.90
19359;DHT22;9815;52.334;20.890;2022-09-09T15:51:37;14.60;99.90
19359;DHT22;9815;52.334;20.890;2022-09-09T15:54:12;14.70;99.90
19359;DHT22;9815;52.334;20.890;2022-09-09T15:56:41;14.70;99.90
19359;DHT22;9815;52.334;20.890;2022-09-09T15:59:09;14.60;99.90
19359;DHT22;9815;52.334;20.890;2022-09-09T16:01:39;14.70;99.90
19359;DHT22;9815;52.334;20.890;2022-09-09T16:04:09;14.70;99.90
19359;DHT22;9815;52.334;20.890;2022-09-09T16:06:37;14.70;99.90
19359;DHT22;9815;52.334;20.890;2022-09-09T16:09:07;14.80;99.90
19359;DHT22;9815;52.334;20.890;2022-09-09T16:11:37;14.80;99.90
19359;DHT22;9815;52.334;20.890;2022-09-09T16:14:06;14.80;99.90
19359;DHT22;9815;52.334;20.890;2022-09-09T16:16:35;14.70;99.90
19359;DHT22;9815;52.334;20.890;2022-09-09T16:19:06;14.80;99.90
19359;DHT22;9815;52.334;20.890;2022-09-09T16:21:38;14.70;99.90